sensor_id;sensor_type;location;lat;lon;timestamp;P1;durP1;ratioP1;P2;durP2;ratioP2
63378;SDS011;49509;54.996;73.270;2022-07-29T00:01:35;12.00;;;12.00;;
63378;SDS011;49509;54.996;73.270;2022-07-29T00:04:01;10.00;;;10.00;;
63378;SDS011;49509;54.996;73.270;2022-07-29T00:06:28;11.60;;;11.00;;
63378;SDS011;49509;54.996;73.270;2022-07-29T00:08:54;12.25;;;12.00;;
63378;SDS011;49509;54.996;73.270;2022-07-29T00:11:21;11.75;;;11.75;;
63378;SDS011;49509;54.996;73.270;2022-07-29T00:13:54;14.00;;;11.75;;
63378;SDS011;49509;54.996;73.270;2022-07-29T00:16:30;14.25;;;13.75;;
63378;SDS011;49509;54.996;73.270;2022-07-29T00:18:56;9.50;;;9.50;;
63378;SDS011;49509;54.996;73.270;2022-07-29T00:21:23;13.00;;;12.25;;
63378;SDS011;49509;54.996;73.270;2022-07-29T00:23:49;11.50;;;11.50;;
63378;SDS011;49509;54.996;73.270;2022-07-29T00:26:15;9.75;;;9.75;;
63378;SDS011;49509;54.996;73.270;2022-07-29T00:28:47;10.20;;;10.20;;
63378;SDS011;49509;54.996;73.270;2022-07-29T00:31:13;11.80;;;10.20;;
63378;SDS011;49509;54.996;73.270;2022-07-29T00:33:40;10.00;;;10.00;;
63378;SDS011;49509;54.996;73.270;2022-07-29T00:36:06;8.60;;;8.60;;
63378;SDS011;49509;54.996;73.270;2022-07-29T00:38:32;12.00;;;12.00;;
63378;SDS011;49509;54.996;73.270;2022-07-29T00:40:59;12.20;;;12.20;;
63378;SDS011;49509;54.996;73.270;2022-07-29T00:43:25;12.40;;;11.20;;
63378;SDS011;49509;54.996;73.270;2022-07-29T00:46:02;8.00;;;8.00;;
63378;SDS011;49509;54.996;73.270;2022-07-29T00:48:29;8.80;;;8.80;;
63378;SDS011;49509;54.996;73.270;2022-07-29T00:50:56;8.00;;;8.00;;
63378;SDS011;49509;54.996;73.270;2022-07-29T00:53:23;9.80;;;8.40;;
63378;SDS011;49509;54.996;73.270;2022-07-29T00:56:01;6.00;;;6.00;;
63378;SDS011;49509;54.996;73.270;2022-07-29T00:58:27;9.00;;;8.40;;
63378;SDS011;49509;54.996;73.270;2022-07-29T01:00:53;5.60;;;5.60;;
63378;SDS011;49509;54.996;73.270;2022-07-29T01:03:20;9.40;;;9.40;;
63378;SDS011;49509;54.996;73.270;2022-07-29T01:05:46;7.80;;;7.80;;
63378;SDS011;49509;54.996;73.270;2022-07-29T01:08:14;6.20;;;6.00;;
63378;SDS011;49509;54.996;73.270;2022-07-29T01:10:41;7.20;;;7.20;;
63378;SDS011;49509;54.996;73.270;2022-07-29T01:13:13;8.00;;;8.00;;
63378;SDS011;49509;54.996;73.270;2022-07-29T01:15:44;6.80;;;6.40;;
63378;SDS011;49509;54.996;73.270;2022-07-29T01:18:16;5.60;;;5.60;;
63378;SDS011;49509;54.996;73.270;2022-07-29T01:28:56;9.00;;;8.50;;
63378;SDS011;49509;54.996;73.270;2022-07-29T01:31:35;12.00;;;12.00;;
63378;SDS011;49509;54.996;73.270;2022-07-29T01:34:05;7.75;;;7.75;;
63378;SDS011;49509;54.996;73.270;2022-07-29T01:36:43;24.00;;;23.25;;
63378;SDS011;49509;54.996;73.270;2022-07-29T01:39:21;23.75;;;20.25;;
63378;SDS011;49509;54.996;73.270;2022-07-29T01:41:57;9.25;;;8.75;;
63378;SDS011;49509;54.996;73.270;2022-07-29T01:44:30;11.50;;;11.00;;
63378;SDS011;49509;54.996;73.270;2022-07-29T01:46:58;10.00;;;9.75;;
63378;SDS011;49509;54.996;73.270;2022-07-29T01:49:27;8.20;;;8.20;;
63378;SDS011;49509;54.996;73.270;2022-07-29T01:52:15;11.60;;;9.00;;
63378;SDS011;49509;54.996;73.270;2022-07-29T01:54:49;5.50;;;5.50;;
63378;SDS011;49509;54.996;73.270;2022-07-29T01:57:18;11.00;;;11.00;;
63378;SDS011;49509;54.996;73.270;2022-07-29T01:59:47;11.60;;;11.60;;
63378;SDS011;49509;54.996;73.270;2022-07-29T02:02:15;12.20;;;9.60;;
63378;SDS011;49509;54.996;73.270;2022-07-29T02:04:42;9.40;;;9.40;;
63378;SDS011;49509;54.996;73.270;2022-07-29T02:07:12;6.60;;;6.60;;
63378;SDS011;49509;54.996;73.270;2022-07-29T02:09:41;10.75;;;10.75;;
63378;SDS011;49509;54.996;73.270;2022-07-29T02:12:08;12.00;;;12.00;;
63378;SDS011;49509;54.996;73.270;2022-07-29T02:14:37;12.20;;;12.00;;
63378;SDS011;49509;54.996;73.270;2022-07-29T02:17:04;13.80;;;13.80;;
63378;SDS011;49509;54.996;73.270;2022-07-29T02:19:32;13.40;;;13.40;;
63378;SDS011;49509;54.996;73.270;2022-07-29T02:21:59;14.40;;;12.40;;
63378;SDS011;49509;54.996;73.270;2022-07-29T02:24:26;9.60;;;9.60;;
63378;SDS011;49509;54.996;73.270;2022-07-29T02:27:00;8.60;;;8.60;;
63378;SDS011;49509;54.996;73.270;2022-07-29T02:29:28;10.60;;;10.60;;
63378;SDS011;49509;54.996;73.270;2022-07-29T02:31:58;11.50;;;11.50;;
63378;SDS011;49509;54.996;73.270;2022-07-29T02:34:26;13.00;;;13.00;;
63378;SDS011;49509;54.996;73.270;2022-07-29T02:36:53;10.50;;;10.50;;
63378;SDS011;49509;54.996;73.270;2022-07-29T02:39:20;14.75;;;11.75;;
63378;SDS011;49509;54.996;73.270;2022-07-29T02:41:55;9.25;;;8.00;;
63378;SDS011;49509;54.996;73.270;2022-07-29T02:44:24;11.25;;;11.25;;
63378;SDS011;49509;54.996;73.270;2022-07-29T02:46:58;12.75;;;12.50;;
63378;SDS011;49509;54.996;73.270;2022-07-29T02:49:47;11.50;;;11.50;;
63378;SDS011;49509;54.996;73.270;2022-07-29T02:55:30;11.80;;;10.80;;
63378;SDS011;49509;54.996;73.270;2022-07-29T02:57:32;10.40;;;10.20;;
63378;SDS011;49509;54.996;73.270;2022-07-29T03:00:01;10.60;;;10.60;;
63378;SDS011;49509;54.996;73.270;2022-07-29T03:02:31;9.20;;;9.20;;
63378;SDS011;49509;54.996;73.270;2022-07-29T03:04:59;10.00;;;10.00;;
63378;SDS011;49509;54.996;73.270;2022-07-29T03:07:26;9.20;;;9.20;;
63378;SDS011;49509;54.996;73.270;2022-07-29T03:09:53;9.20;;;8.20;;
63378;SDS011;49509;54.996;73.270;2022-07-29T03:12:20;12.00;;;11.00;;
63378;SDS011;49509;54.996;73.270;2022-07-29T03:14:49;11.20;;;11.00;;
63378;SDS011;49509;54.996;73.270;2022-07-29T03:17:15;8.60;;;8.60;;
63378;SDS011;49509;54.996;73.270;2022-07-29T03:19:42;11.40;;;11.40;;
63378;SDS011;49509;54.996;73.270;2022-07-29T03:22:09;8.80;;;8.80;;
63378;SDS011;49509;54.996;73.270;2022-07-29T03:24:36;11.40;;;10.20;;
63378;SDS011;49509;54.996;73.270;2022-07-29T03:27:03;6.60;;;6.60;;
63378;SDS011;49509;54.996;73.270;2022-07-29T03:29:29;7.00;;;7.00;;
63378;SDS011;49509;54.996;73.270;2022-07-29T03:31:56;7.80;;;7.80;;
63378;SDS011;49509;54.996;73.270;2022-07-29T03:34:22;6.00;;;6.00;;
63378;SDS011;49509;54.996;73.270;2022-07-29T03:36:49;7.20;;;7.20;;
63378;SDS011;49509;54.996;73.270;2022-07-29T03:39:17;6.40;;;6.40;;
63378;SDS011;49509;54.996;73.270;2022-07-29T03:41:44;7.80;;;7.80;;
63378;SDS011;49509;54.996;73.270;2022-07-29T03:44:12;8.00;;;8.00;;
63378;SDS011;49509;54.996;73.270;2022-07-29T03:46:39;6.00;;;5.20;;
63378;SDS011;49509;54.996;73.270;2022-07-29T03:49:14;7.80;;;5.80;;
63378;SDS011;49509;54.996;73.270;2022-07-29T03:51:40;9.00;;;8.20;;
63378;SDS011;49509;54.996;73.270;2022-07-29T03:54:07;8.20;;;7.20;;
63378;SDS011;49509;54.996;73.270;2022-07-29T03:56:34;7.60;;;7.60;;
63378;SDS011;49509;54.996;73.270;2022-07-29T03:59:01;10.60;;;9.00;;
63378;SDS011;49509;54.996;73.270;2022-07-29T04:01:29;5.20;;;5.20;;
63378;SDS011;49509;54.996;73.270;2022-07-29T04:03:55;7.20;;;6.40;;
63378;SDS011;49509;54.996;73.270;2022-07-29T04:06:22;11.60;;;11.40;;
63378;SDS011;49509;54.996;73.270;2022-07-29T04:08:49;6.60;;;6.60;;
63378;SDS011;49509;54.996;73.270;2022-07-29T04:11:15;9.20;;;6.60;;
63378;SDS011;49509;54.996;73.270;2022-07-29T04:13:44;9.60;;;9.60;;
63378;SDS011;49509;54.996;73.270;2022-07-29T04:19:03;8.80;;;8.60;;
63378;SDS011;49509;54.996;73.270;2022-07-29T04:21:36;11.20;;;10.00;;
63378;SDS011;49509;54.996;73.270;2022-07-29T04:24:03;10.80;;;10.80;;
63378;SDS011;49509;54.996;73.270;2022-07-29T04:29:50;16.80;;;15.60;;
63378;SDS011;49509;54.996;73.270;2022-07-29T04:32:17;16.00;;;15.80;;
63378;SDS011;49509;54.996;73.270;2022-07-29T04:34:44;21.00;;;19.75;;
63378;SDS011;49509;54.996;73.270;2022-07-29T04:37:12;19.00;;;18.25;;
63378;SDS011;49509;54.996;73.270;2022-07-29T04:42:40;21.00;;;19.50;;
63378;SDS011;49509;54.996;73.270;2022-07-29T04:45:09;22.25;;;21.00;;
63378;SDS011;49509;54.996;73.270;2022-07-29T04:56:42;21.80;;;19.20;;
63378;SDS011;49509;54.996;73.270;2022-07-29T04:59:18;21.00;;;20.20;;
63378;SDS011;49509;54.996;73.270;2022-07-29T05:01:44;23.50;;;22.50;;
63378;SDS011;49509;54.996;73.270;2022-07-29T05:04:16;21.75;;;20.75;;
63378;SDS011;49509;54.996;73.270;2022-07-29T05:06:43;19.25;;;18.00;;
63378;SDS011;49509;54.996;73.270;2022-07-29T05:09:09;26.00;;;25.00;;
63378;SDS011;49509;54.996;73.270;2022-07-29T05:11:36;24.25;;;22.75;;
63378;SDS011;49509;54.996;73.270;2022-07-29T05:14:07;26.25;;;25.50;;
63378;SDS011;49509;54.996;73.270;2022-07-29T05:16:33;22.25;;;22.25;;
63378;SDS011;49509;54.996;73.270;2022-07-29T05:19:09;25.40;;;24.40;;
63378;SDS011;49509;54.996;73.270;2022-07-29T05:21:35;23.00;;;22.75;;
63378;SDS011;49509;54.996;73.270;2022-07-29T05:24:12;25.25;;;21.75;;
63378;SDS011;49509;54.996;73.270;2022-07-29T05:26:48;24.00;;;22.80;;
63378;SDS011;49509;54.996;73.270;2022-07-29T05:29:15;24.40;;;23.60;;
63378;SDS011;49509;54.996;73.270;2022-07-29T05:31:41;23.20;;;22.60;;
63378;SDS011;49509;54.996;73.270;2022-07-29T05:34:17;20.75;;;20.50;;
63378;SDS011;49509;54.996;73.270;2022-07-29T05:36:45;21.20;;;19.40;;
63378;SDS011;49509;54.996;73.270;2022-07-29T05:39:12;26.40;;;23.00;;
63378;SDS011;49509;54.996;73.270;2022-07-29T05:41:39;24.00;;;23.40;;
63378;SDS011;49509;54.996;73.270;2022-07-29T05:44:06;24.80;;;23.80;;
63378;SDS011;49509;54.996;73.270;2022-07-29T05:46:35;18.00;;;18.00;;
63378;SDS011;49509;54.996;73.270;2022-07-29T05:49:02;21.00;;;21.00;;
63378;SDS011;49509;54.996;73.270;2022-07-29T05:51:28;22.00;;;21.00;;
63378;SDS011;49509;54.996;73.270;2022-07-29T05:53:55;21.60;;;19.40;;
63378;SDS011;49509;54.996;73.270;2022-07-29T05:56:24;19.60;;;17.60;;
63378;SDS011;49509;54.996;73.270;2022-07-29T05:58:57;20.80;;;20.60;;
63378;SDS011;49509;54.996;73.270;2022-07-29T06:01:28;23.80;;;23.80;;
63378;SDS011;49509;54.996;73.270;2022-07-29T06:03:54;20.00;;;20.00;;
63378;SDS011;49509;54.996;73.270;2022-07-29T06:06:21;21.00;;;20.75;;
63378;SDS011;49509;54.996;73.270;2022-07-29T06:08:47;21.20;;;19.60;;
63378;SDS011;49509;54.996;73.270;2022-07-29T06:11:14;18.00;;;18.00;;
63378;SDS011;49509;54.996;73.270;2022-07-29T06:13:42;21.40;;;20.60;;
63378;SDS011;49509;54.996;73.270;2022-07-29T06:16:08;17.80;;;17.80;;
63378;SDS011;49509;54.996;73.270;2022-07-29T06:18:45;20.60;;;20.60;;
63378;SDS011;49509;54.996;73.270;2022-07-29T06:21:12;17.00;;;17.00;;
63378;SDS011;49509;54.996;73.270;2022-07-29T06:23:39;19.40;;;19.40;;
63378;SDS011;49509;54.996;73.270;2022-07-29T06:26:05;20.60;;;20.60;;
63378;SDS011;49509;54.996;73.270;2022-07-29T06:28:32;19.80;;;18.80;;
63378;SDS011;49509;54.996;73.270;2022-07-29T06:30:58;24.00;;;22.20;;
63378;SDS011;49509;54.996;73.270;2022-07-29T06:33:25;21.40;;;20.40;;
63378;SDS011;49509;54.996;73.270;2022-07-29T06:35:56;24.60;;;22.80;;
63378;SDS011;49509;54.996;73.270;2022-07-29T06:38:23;25.60;;;24.80;;
63378;SDS011;49509;54.996;73.270;2022-07-29T06:40:49;22.20;;;21.20;;
63378;SDS011;49509;54.996;73.270;2022-07-29T06:43:37;20.60;;;20.60;;
63378;SDS011;49509;54.996;73.270;2022-07-29T06:46:05;24.80;;;22.60;;
63378;SDS011;49509;54.996;73.270;2022-07-29T06:48:33;19.20;;;19.20;;
63378;SDS011;49509;54.996;73.270;2022-07-29T06:50:59;22.20;;;21.60;;
63378;SDS011;49509;54.996;73.270;2022-07-29T06:53:26;22.20;;;20.00;;
63378;SDS011;49509;54.996;73.270;2022-07-29T06:55:53;21.80;;;20.80;;
63378;SDS011;49509;54.996;73.270;2022-07-29T06:58:20;22.20;;;21.40;;
63378;SDS011;49509;54.996;73.270;2022-07-29T07:01:00;22.40;;;22.00;;
63378;SDS011;49509;54.996;73.270;2022-07-29T07:03:27;24.80;;;24.40;;
63378;SDS011;49509;54.996;73.270;2022-07-29T07:06:03;23.00;;;22.50;;
63378;SDS011;49509;54.996;73.270;2022-07-29T07:08:30;23.50;;;21.00;;
63378;SDS011;49509;54.996;73.270;2022-07-29T07:10:56;19.20;;;19.20;;
63378;SDS011;49509;54.996;73.270;2022-07-29T07:13:23;22.50;;;21.75;;
63378;SDS011;49509;54.996;73.270;2022-07-29T07:15:52;20.20;;;18.40;;
63378;SDS011;49509;54.996;73.270;2022-07-29T07:18:19;20.00;;;20.00;;
63378;SDS011;49509;54.996;73.270;2022-07-29T07:20:55;20.40;;;20.40;;
63378;SDS011;49509;54.996;73.270;2022-07-29T07:23:22;19.60;;;19.60;;
63378;SDS011;49509;54.996;73.270;2022-07-29T07:25:48;17.80;;;17.80;;
63378;SDS011;49509;54.996;73.270;2022-07-29T07:28:15;21.20;;;20.80;;
63378;SDS011;49509;54.996;73.270;2022-07-29T07:30:41;20.60;;;19.60;;
63378;SDS011;49509;54.996;73.270;2022-07-29T07:33:08;18.00;;;18.00;;
63378;SDS011;49509;54.996;73.270;2022-07-29T07:35:34;21.80;;;21.80;;
63378;SDS011;49509;54.996;73.270;2022-07-29T07:38:00;21.20;;;21.20;;
63378;SDS011;49509;54.996;73.270;2022-07-29T07:40:27;21.40;;;21.40;;
63378;SDS011;49509;54.996;73.270;2022-07-29T07:42:55;19.00;;;19.00;;
63378;SDS011;49509;54.996;73.270;2022-07-29T07:45:21;22.20;;;21.80;;
63378;SDS011;49509;54.996;73.270;2022-07-29T07:47:48;21.60;;;20.60;;
63378;SDS011;49509;54.996;73.270;2022-07-29T07:50:15;20.40;;;20.40;;
63378;SDS011;49509;54.996;73.270;2022-07-29T07:52:51;20.40;;;20.00;;
63378;SDS011;49509;54.996;73.270;2022-07-29T07:55:22;20.80;;;20.00;;
63378;SDS011;49509;54.996;73.270;2022-07-29T07:57:49;17.40;;;16.80;;
63378;SDS011;49509;54.996;73.270;2022-07-29T08:00:16;18.60;;;18.60;;
63378;SDS011;49509;54.996;73.270;2022-07-29T08:02:42;21.20;;;19.60;;
63378;SDS011;49509;54.996;73.270;2022-07-29T08:05:09;21.20;;;21.20;;
63378;SDS011;49509;54.996;73.270;2022-07-29T08:07:46;21.80;;;19.80;;
63378;SDS011;49509;54.996;73.270;2022-07-29T08:10:16;21.40;;;21.40;;
63378;SDS011;49509;54.996;73.270;2022-07-29T08:13:03;21.00;;;21.00;;
63378;SDS011;49509;54.996;73.270;2022-07-29T08:15:29;18.60;;;18.60;;
63378;SDS011;49509;54.996;73.270;2022-07-29T08:17:55;19.40;;;19.40;;
63378;SDS011;49509;54.996;73.270;2022-07-29T08:20:22;18.20;;;17.00;;
63378;SDS011;49509;54.996;73.270;2022-07-29T08:22:48;19.40;;;19.00;;
63378;SDS011;49509;54.996;73.270;2022-07-29T08:25:16;21.80;;;20.80;;
63378;SDS011;49509;54.996;73.270;2022-07-29T08:27:46;20.20;;;19.60;;
63378;SDS011;49509;54.996;73.270;2022-07-29T08:30:13;17.00;;;17.00;;
63378;SDS011;49509;54.996;73.270;2022-07-29T08:32:39;19.80;;;19.80;;
63378;SDS011;49509;54.996;73.270;2022-07-29T08:35:05;20.00;;;20.00;;
63378;SDS011;49509;54.996;73.270;2022-07-29T08:37:43;20.60;;;20.60;;
63378;SDS011;49509;54.996;73.270;2022-07-29T08:40:09;20.20;;;20.20;;
63378;SDS011;49509;54.996;73.270;2022-07-29T08:42:36;18.00;;;16.80;;
63378;SDS011;49509;54.996;73.270;2022-07-29T08:45:03;17.40;;;16.40;;
63378;SDS011;49509;54.996;73.270;2022-07-29T08:47:29;19.40;;;19.40;;
63378;SDS011;49509;54.996;73.270;2022-07-29T08:49:55;18.40;;;18.40;;
63378;SDS011;49509;54.996;73.270;2022-07-29T08:52:23;24.80;;;24.80;;
63378;SDS011;49509;54.996;73.270;2022-07-29T08:54:52;19.00;;;19.00;;
63378;SDS011;49509;54.996;73.270;2022-07-29T08:57:19;15.60;;;15.60;;
63378;SDS011;49509;54.996;73.270;2022-07-29T08:59:46;17.40;;;16.80;;
63378;SDS011;49509;54.996;73.270;2022-07-29T09:02:23;22.40;;;20.80;;
63378;SDS011;49509;54.996;73.270;2022-07-29T09:04:51;18.80;;;18.80;;
63378;SDS011;49509;54.996;73.270;2022-07-29T09:07:18;19.20;;;18.60;;
63378;SDS011;49509;54.996;73.270;2022-07-29T09:09:44;20.20;;;19.20;;
63378;SDS011;49509;54.996;73.270;2022-07-29T09:12:11;20.00;;;19.00;;
63378;SDS011;49509;54.996;73.270;2022-07-29T09:14:38;21.60;;;21.20;;
63378;SDS011;49509;54.996;73.270;2022-07-29T09:17:05;21.60;;;18.00;;
63378;SDS011;49509;54.996;73.270;2022-07-29T09:19:32;19.40;;;19.40;;
63378;SDS011;49509;54.996;73.270;2022-07-29T09:22:02;19.20;;;19.20;;
63378;SDS011;49509;54.996;73.270;2022-07-29T09:27:01;20.60;;;20.20;;
63378;SDS011;49509;54.996;73.270;2022-07-29T09:29:28;23.00;;;21.40;;
63378;SDS011;49509;54.996;73.270;2022-07-29T09:31:54;21.40;;;20.40;;
63378;SDS011;49509;54.996;73.270;2022-07-29T09:34:22;19.40;;;19.40;;
63378;SDS011;49509;54.996;73.270;2022-07-29T09:36:58;19.80;;;19.80;;
63378;SDS011;49509;54.996;73.270;2022-07-29T09:39:36;16.00;;;16.00;;
63378;SDS011;49509;54.996;73.270;2022-07-29T09:42:10;18.80;;;18.60;;
63378;SDS011;49509;54.996;73.270;2022-07-29T09:47:39;19.40;;;18.40;;
63378;SDS011;49509;54.996;73.270;2022-07-29T09:50:06;17.20;;;15.80;;
63378;SDS011;49509;54.996;73.270;2022-07-29T09:52:41;19.00;;;19.00;;
63378;SDS011;49509;54.996;73.270;2022-07-29T09:55:10;19.80;;;19.80;;
63378;SDS011;49509;54.996;73.270;2022-07-29T09:57:36;18.60;;;17.60;;
63378;SDS011;49509;54.996;73.270;2022-07-29T10:00:13;18.80;;;17.20;;
63378;SDS011;49509;54.996;73.270;2022-07-29T10:02:43;21.20;;;21.20;;
63378;SDS011;49509;54.996;73.270;2022-07-29T10:05:31;20.80;;;20.60;;
63378;SDS011;49509;54.996;73.270;2022-07-29T10:07:59;21.80;;;20.60;;
63378;SDS011;49509;54.996;73.270;2022-07-29T10:10:29;19.80;;;19.20;;
63378;SDS011;49509;54.996;73.270;2022-07-29T10:13:04;21.80;;;20.80;;
63378;SDS011;49509;54.996;73.270;2022-07-29T10:15:33;20.40;;;20.40;;
63378;SDS011;49509;54.996;73.270;2022-07-29T10:18:02;19.80;;;19.80;;
63378;SDS011;49509;54.996;73.270;2022-07-29T10:20:29;16.40;;;16.40;;
63378;SDS011;49509;54.996;73.270;2022-07-29T10:22:55;20.80;;;19.80;;
63378;SDS011;49509;54.996;73.270;2022-07-29T10:25:23;19.00;;;18.40;;
63378;SDS011;49509;54.996;73.270;2022-07-29T10:27:55;21.80;;;21.80;;
63378;SDS011;49509;54.996;73.270;2022-07-29T10:30:24;22.00;;;20.60;;
63378;SDS011;49509;54.996;73.270;2022-07-29T10:43:47;20.80;;;20.80;;
63378;SDS011;49509;54.996;73.270;2022-07-29T10:46:15;22.20;;;21.40;;
63378;SDS011;49509;54.996;73.270;2022-07-29T10:51:33;20.80;;;19.80;;
63378;SDS011;49509;54.996;73.270;2022-07-29T10:59:47;22.40;;;21.40;;
63378;SDS011;49509;54.996;73.270;2022-07-29T11:05:03;13.80;;;13.80;;
63378;SDS011;49509;54.996;73.270;2022-07-29T11:07:31;21.40;;;20.00;;
63378;SDS011;49509;54.996;73.270;2022-07-29T11:10:33;21.60;;;19.80;;
63378;SDS011;49509;54.996;73.270;2022-07-29T11:12:52;21.60;;;20.60;;
63378;SDS011;49509;54.996;73.270;2022-07-29T11:15:24;18.00;;;17.20;;
63378;SDS011;49509;54.996;73.270;2022-07-29T11:20:36;20.20;;;20.20;;
63378;SDS011;49509;54.996;73.270;2022-07-29T11:23:18;22.80;;;22.40;;
63378;SDS011;49509;54.996;73.270;2022-07-29T11:26:12;19.00;;;18.20;;
63378;SDS011;49509;54.996;73.270;2022-07-29T11:28:31;19.20;;;18.20;;
63378;SDS011;49509;54.996;73.270;2022-07-29T11:30:58;20.60;;;18.20;;
63378;SDS011;49509;54.996;73.270;2022-07-29T11:33:32;18.00;;;18.00;;
63378;SDS011;49509;54.996;73.270;2022-07-29T11:36:32;20.20;;;20.20;;
63378;SDS011;49509;54.996;73.270;2022-07-29T11:38:51;18.00;;;18.00;;
63378;SDS011;49509;54.996;73.270;2022-07-29T11:41:37;17.40;;;17.40;;
63378;SDS011;49509;54.996;73.270;2022-07-29T11:44:04;18.60;;;18.60;;
63378;SDS011;49509;54.996;73.270;2022-07-29T11:49:10;17.80;;;17.80;;
63378;SDS011;49509;54.996;73.270;2022-07-29T11:51:37;19.40;;;19.40;;
63378;SDS011;49509;54.996;73.270;2022-07-29T11:54:15;13.20;;;13.20;;
63378;SDS011;49509;54.996;73.270;2022-07-29T11:56:48;16.60;;;16.60;;
63378;SDS011;49509;54.996;73.270;2022-07-29T11:59:15;19.00;;;18.60;;
63378;SDS011;49509;54.996;73.270;2022-07-29T12:01:54;19.00;;;17.80;;
63378;SDS011;49509;54.996;73.270;2022-07-29T12:04:20;16.00;;;16.00;;
63378;SDS011;49509;54.996;73.270;2022-07-29T12:06:52;15.80;;;15.40;;
63378;SDS011;49509;54.996;73.270;2022-07-29T12:09:30;11.20;;;11.20;;
63378;SDS011;49509;54.996;73.270;2022-07-29T12:11:57;17.00;;;17.00;;
63378;SDS011;49509;54.996;73.270;2022-07-29T12:14:33;17.80;;;16.80;;
63378;SDS011;49509;54.996;73.270;2022-07-29T12:17:01;13.00;;;13.00;;
63378;SDS011;49509;54.996;73.270;2022-07-29T12:19:28;15.80;;;15.80;;
63378;SDS011;49509;54.996;73.270;2022-07-29T12:21:55;14.80;;;14.80;;
63378;SDS011;49509;54.996;73.270;2022-07-29T12:24:22;19.00;;;19.00;;
63378;SDS011;49509;54.996;73.270;2022-07-29T12:26:58;16.20;;;15.80;;
63378;SDS011;49509;54.996;73.270;2022-07-29T12:29:25;19.20;;;17.40;;
63378;SDS011;49509;54.996;73.270;2022-07-29T12:32:00;14.20;;;14.20;;
63378;SDS011;49509;54.996;73.270;2022-07-29T12:34:31;14.40;;;14.40;;
63378;SDS011;49509;54.996;73.270;2022-07-29T12:36:58;14.20;;;14.20;;
63378;SDS011;49509;54.996;73.270;2022-07-29T12:39:24;17.00;;;17.00;;
63378;SDS011;49509;54.996;73.270;2022-07-29T12:41:53;16.20;;;15.40;;
63378;SDS011;49509;54.996;73.270;2022-07-29T12:44:20;18.00;;;15.80;;
63378;SDS011;49509;54.996;73.270;2022-07-29T12:47:00;14.60;;;14.60;;
63378;SDS011;49509;54.996;73.270;2022-07-29T12:49:27;15.20;;;15.20;;
63378;SDS011;49509;54.996;73.270;2022-07-29T12:51:59;14.80;;;14.00;;
63378;SDS011;49509;54.996;73.270;2022-07-29T12:54:27;15.40;;;15.40;;
63378;SDS011;49509;54.996;73.270;2022-07-29T12:56:58;14.60;;;14.60;;
63378;SDS011;49509;54.996;73.270;2022-07-29T12:59:25;14.20;;;14.20;;
63378;SDS011;49509;54.996;73.270;2022-07-29T13:01:51;13.00;;;11.80;;
63378;SDS011;49509;54.996;73.270;2022-07-29T13:04:28;15.40;;;15.40;;
63378;SDS011;49509;54.996;73.270;2022-07-29T13:06:58;15.00;;;15.00;;
63378;SDS011;49509;54.996;73.270;2022-07-29T13:09:35;16.40;;;15.00;;
63378;SDS011;49509;54.996;73.270;2022-07-29T13:12:05;15.80;;;15.80;;
63378;SDS011;49509;54.996;73.270;2022-07-29T13:14:32;12.20;;;12.20;;
63378;SDS011;49509;54.996;73.270;2022-07-29T13:17:06;16.00;;;15.20;;
63378;SDS011;49509;54.996;73.270;2022-07-29T13:19:34;16.20;;;16.20;;
63378;SDS011;49509;54.996;73.270;2022-07-29T13:22:08;16.00;;;16.00;;
63378;SDS011;49509;54.996;73.270;2022-07-29T13:24:44;14.60;;;12.60;;
63378;SDS011;49509;54.996;73.270;2022-07-29T13:27:11;12.00;;;12.00;;
63378;SDS011;49509;54.996;73.270;2022-07-29T13:29:42;14.60;;;14.20;;
63378;SDS011;49509;54.996;73.270;2022-07-29T13:32:09;15.80;;;15.80;;
63378;SDS011;49509;54.996;73.270;2022-07-29T13:34:35;12.40;;;12.40;;
63378;SDS011;49509;54.996;73.270;2022-07-29T13:37:01;14.00;;;14.00;;
63378;SDS011;49509;54.996;73.270;2022-07-29T13:39:32;11.80;;;11.80;;
63378;SDS011;49509;54.996;73.270;2022-07-29T13:41:58;12.40;;;11.40;;
63378;SDS011;49509;54.996;73.270;2022-07-29T13:44:24;13.80;;;12.00;;
63378;SDS011;49509;54.996;73.270;2022-07-29T13:46:59;11.00;;;11.00;;
63378;SDS011;49509;54.996;73.270;2022-07-29T13:49:26;11.00;;;11.00;;
63378;SDS011;49509;54.996;73.270;2022-07-29T13:51:53;10.00;;;10.00;;
63378;SDS011;49509;54.996;73.270;2022-07-29T13:54:20;13.00;;;13.00;;
63378;SDS011;49509;54.996;73.270;2022-07-29T13:56:46;10.60;;;10.60;;
63378;SDS011;49509;54.996;73.270;2022-07-29T13:59:12;11.80;;;11.80;;
63378;SDS011;49509;54.996;73.270;2022-07-29T14:01:49;10.80;;;10.80;;
63378;SDS011;49509;54.996;73.270;2022-07-29T14:04:15;8.60;;;8.60;;
63378;SDS011;49509;54.996;73.270;2022-07-29T14:06:51;12.20;;;12.20;;
63378;SDS011;49509;54.996;73.270;2022-07-29T14:09:18;13.80;;;12.60;;
63378;SDS011;49509;54.996;73.270;2022-07-29T14:11:44;10.20;;;10.20;;
63378;SDS011;49509;54.996;73.270;2022-07-29T14:14:11;11.00;;;10.00;;
63378;SDS011;49509;54.996;73.270;2022-07-29T14:16:37;9.00;;;9.00;;
63378;SDS011;49509;54.996;73.270;2022-07-29T14:19:04;9.80;;;9.80;;
63378;SDS011;49509;54.996;73.270;2022-07-29T14:21:30;11.00;;;11.00;;
63378;SDS011;49509;54.996;73.270;2022-07-29T14:24:05;10.80;;;10.80;;
63378;SDS011;49509;54.996;73.270;2022-07-29T14:26:41;12.00;;;11.00;;
63378;SDS011;49509;54.996;73.270;2022-07-29T14:29:14;12.00;;;10.80;;
63378;SDS011;49509;54.996;73.270;2022-07-29T14:31:40;8.40;;;8.40;;
63378;SDS011;49509;54.996;73.270;2022-07-29T14:34:08;9.60;;;9.60;;
63378;SDS011;49509;54.996;73.270;2022-07-29T14:36:34;9.40;;;9.40;;
63378;SDS011;49509;54.996;73.270;2022-07-29T14:39:10;11.80;;;11.80;;
63378;SDS011;49509;54.996;73.270;2022-07-29T14:41:37;9.60;;;9.60;;
63378;SDS011;49509;54.996;73.270;2022-07-29T14:44:04;11.20;;;10.20;;
63378;SDS011;49509;54.996;73.270;2022-07-29T14:46:30;11.60;;;10.80;;
63378;SDS011;49509;54.996;73.270;2022-07-29T14:48:56;9.40;;;9.40;;
63378;SDS011;49509;54.996;73.270;2022-07-29T14:51:27;9.40;;;9.40;;
63378;SDS011;49509;54.996;73.270;2022-07-29T14:53:53;9.80;;;9.40;;
63378;SDS011;49509;54.996;73.270;2022-07-29T14:56:19;7.60;;;7.60;;
63378;SDS011;49509;54.996;73.270;2022-07-29T14:58:46;10.00;;;10.00;;
63378;SDS011;49509;54.996;73.270;2022-07-29T15:01:13;11.00;;;11.00;;
63378;SDS011;49509;54.996;73.270;2022-07-29T15:03:40;11.80;;;11.00;;
63378;SDS011;49509;54.996;73.270;2022-07-29T15:06:06;9.20;;;9.20;;
63378;SDS011;49509;54.996;73.270;2022-07-29T15:08:32;11.00;;;11.00;;
63378;SDS011;49509;54.996;73.270;2022-07-29T15:11:04;10.40;;;10.40;;
63378;SDS011;49509;54.996;73.270;2022-07-29T15:13:30;10.20;;;10.20;;
63378;SDS011;49509;54.996;73.270;2022-07-29T15:16:07;11.00;;;10.00;;
63378;SDS011;49509;54.996;73.270;2022-07-29T15:18:35;13.20;;;12.00;;
63378;SDS011;49509;54.996;73.270;2022-07-29T15:21:04;9.00;;;8.00;;
63378;SDS011;49509;54.996;73.270;2022-07-29T15:23:38;9.60;;;9.60;;
63378;SDS011;49509;54.996;73.270;2022-07-29T15:26:04;8.00;;;8.00;;
63378;SDS011;49509;54.996;73.270;2022-07-29T15:28:30;9.20;;;9.20;;